ハワイーーーーーーーー!!!

LUXURY FLIGHT

080-7560-1817

羽田空港本店:東京都大田区羽田空港3-3-2
第1旅客ターミナル5階
営業時間:10:00~20:00 定休日:年中無休
電話番号:080-7560-1817

セントレア店:愛知県常滑市セントレア1-1
FLIGHT OF DREAMS FLIGHT PARK
営業時間:10:00~20:00 定休日:年中無休
電話番号:080-4945-5666

lv

ハワイーーーーーーーー!!!

STAFF BLOG

2019/07/31 ハワイーーーーーーーー!!!

おはざっスーーーーーーー

 

もう暑すぎてヒザから下が溶けてしまいそうです…

 

そんな羽田周辺のMETARは…

RJTT 310230Z 18014KT 9999 FEW020 32/26 Q1011 NOSIG RMK 1CU020 A2987

 

やはり夏ですねーーーーー

 

 

この炎天下のコンクリートの上で仕事をされている、空港のグランドスタッフの方がいらっしゃるかと思うと、

本当に心から尊敬します。

いつも安全運航、本当にお疲れ様です。

 

 

さてさてさて、やはり季節ですね!!!

最近増えてきたハワイのフライトですが、私も現地のガイドさん並みに名所を案内できるくらいパワーアップして参りました。笑

 

img_2472

やっぱりハワイの夕焼けを観ながら飛ぶフライトは気持ちイイですね

 

写真の美しい女性お二人は「日常生活にスパイスが欲しい」という事で、

ダイヤモンドヘッド上空の急旋回を追加させていただきましたーーーー。笑笑

 

操縦桿を握る方もドキドキ、右席で見守る私もドキドキ

 

このドキドキを恋と勘違いしないよう、自制するのに必死でございました。笑

 

恋の「吊り橋効果」が欲しい方、はたまた日常の生活に刺激が欲しい方。

そんな皆様をラグジュアリーフライトは全力で応援いたしまーーーーす

 

 

 

楽しい時間を本当にありがとうございました。

 

次回のご来店も心よりお待ちいたしております!!

 

この度のご来店誠にありがとうございました。

 

 

「感謝」

TOP